createdAt,value
2019-01-26T00:00:42.164Z,-3.31
2019-01-26T00:03:12.312Z,-3.33
2019-01-26T00:05:42.251Z,-3.23
2019-01-26T00:08:12.397Z,-3.21
2019-01-26T00:10:44.263Z,-3.21
2019-01-26T00:13:14.234Z,-3.18
2019-01-26T00:15:44.328Z,-3.18
2019-01-26T00:18:14.315Z,-3.13
2019-01-26T00:20:44.383Z,-3.20
2019-01-26T00:23:14.285Z,-3.14
2019-01-26T00:25:44.367Z,-3.03
2019-01-26T00:28:14.212Z,-3.07
2019-01-26T00:30:44.328Z,-3.01
2019-01-26T00:33:17.320Z,-3.01
2019-01-26T00:35:47.423Z,-3.01
2019-01-26T00:38:18.596Z,-2.99
2019-01-26T00:40:48.870Z,-2.99
2019-01-26T00:43:21.685Z,-2.85
2019-01-26T00:45:51.641Z,-2.87
2019-01-26T00:48:21.611Z,-2.84
2019-01-26T00:50:51.606Z,-2.81
2019-01-26T00:53:21.655Z,-2.80
2019-01-26T00:55:51.693Z,-2.84
2019-01-26T00:58:23.879Z,-2.79
2019-01-26T01:00:54.014Z,-2.76
2019-01-26T01:03:24.032Z,-2.76
2019-01-26T01:05:53.937Z,-2.74
2019-01-26T01:08:25.839Z,-2.80
2019-01-26T01:10:55.872Z,-2.79
2019-01-26T01:13:26.722Z,-2.75
2019-01-26T01:15:56.701Z,-2.70
2019-01-26T01:18:26.777Z,-2.68
2019-01-26T01:20:56.763Z,-2.64
2019-01-26T01:23:26.748Z,-2.63
2019-01-26T01:25:57.780Z,-2.63
2019-01-26T01:28:27.855Z,-2.58
2019-01-26T01:30:57.869Z,-0.79
2019-01-26T01:33:27.833Z,1.18
2019-01-26T01:35:57.700Z,-0.32
2019-01-26T01:38:27.698Z,-1.22
2019-01-26T01:40:57.710Z,-1.50
2019-01-26T01:43:27.598Z,-1.63
2019-01-26T01:45:57.538Z,-1.83
2019-01-26T01:48:27.543Z,-1.67
2019-01-26T01:50:57.601Z,-1.56
2019-01-26T01:53:27.512Z,-1.62
2019-01-26T01:55:57.832Z,-1.61
2019-01-26T01:58:27.741Z,-1.56
2019-01-26T02:00:57.791Z,-1.45
2019-01-26T02:03:27.770Z,-1.55
2019-01-26T02:05:57.706Z,-1.50
2019-01-26T02:08:27.730Z,-1.56
2019-01-26T02:10:58.029Z,-1.46
2019-01-26T02:13:27.994Z,-1.19
2019-01-26T02:15:57.935Z,-1.12
2019-01-26T02:18:27.993Z,-1.08
2019-01-26T02:20:58.062Z,-1.08
2019-01-26T02:23:30.921Z,-0.96
2019-01-26T02:26:01.150Z,-1.24
2019-01-26T02:28:31.130Z,-1.29
2019-01-26T02:31:02.179Z,-1.12
2019-01-26T02:33:32.201Z,-1.12
2019-01-26T02:36:02.125Z,-0.94
2019-01-26T02:38:32.086Z,-0.75
2019-01-26T02:41:02.000Z,-0.67
2019-01-26T02:43:31.956Z,-0.52
2019-01-26T02:46:01.851Z,-0.86
2019-01-26T02:48:31.786Z,-0.67
2019-01-26T02:51:01.604Z,-0.48
2019-01-26T02:53:31.630Z,-0.64
2019-01-26T02:56:01.527Z,-0.47
2019-01-26T02:58:31.467Z,-0.25
2019-01-26T03:01:02.508Z,-0.44
2019-01-26T03:03:32.446Z,-0.14
2019-01-26T03:06:02.349Z,-0.26
2019-01-26T03:08:32.335Z,-0.23
2019-01-26T03:11:02.398Z,-0.33
2019-01-26T03:13:32.224Z,-0.23
2019-01-26T03:16:02.260Z,-0.08
2019-01-26T03:18:32.158Z,0.00
2019-01-26T03:21:03.181Z,-0.02
2019-01-26T03:23:33.177Z,0.04
2019-01-26T03:26:04.482Z,0.04
2019-01-26T03:28:36.757Z,0.07
2019-01-26T03:31:06.780Z,0.07
2019-01-26T03:33:36.675Z,0.12
2019-01-26T03:36:06.778Z,0.09
2019-01-26T03:38:37.459Z,0.10
2019-01-26T03:41:07.560Z,0.08
2019-01-26T03:43:37.723Z,0.11
2019-01-26T03:46:07.710Z,0.06
2019-01-26T03:48:38.173Z,0.09
2019-01-26T03:51:08.189Z,0.03
2019-01-26T03:53:40.987Z,-0.04
2019-01-26T03:56:11.126Z,-0.02
2019-01-26T03:59:00.576Z,-0.09
2019-01-26T04:01:31.254Z,-0.16
2019-01-26T04:04:01.278Z,-0.17
2019-01-26T04:06:31.255Z,-0.28
2019-01-26T04:09:01.427Z,-0.34
2019-01-26T04:11:32.519Z,-0.36
2019-01-26T04:14:02.487Z,-0.40
2019-01-26T04:16:32.450Z,-0.29
2019-01-26T04:19:02.428Z,-0.38
2019-01-26T04:21:32.709Z,-0.38
2019-01-26T04:24:03.059Z,-0.25
2019-01-26T04:26:52.383Z,-0.25
2019-01-26T04:29:22.987Z,-0.25
2019-01-26T04:31:55.502Z,-0.10
2019-01-26T04:34:25.401Z,-0.11
2019-01-26T04:36:55.433Z,-0.09
2019-01-26T04:39:25.445Z,-0.12
2019-01-26T04:41:59.310Z,-0.16
2019-01-26T04:44:29.171Z,-0.22
2019-01-26T04:46:59.119Z,-0.23
2019-01-26T04:49:29.163Z,-0.25
2019-01-26T04:51:59.120Z,-0.19
2019-01-26T04:54:28.986Z,-0.15
2019-01-26T04:56:58.892Z,-0.15
2019-01-26T04:59:28.915Z,-0.31
2019-01-26T05:01:58.814Z,-0.38
2019-01-26T05:04:28.834Z,-0.50
2019-01-26T05:06:58.732Z,-0.48
2019-01-26T05:09:28.755Z,-0.65
2019-01-26T05:11:58.628Z,-0.64
2019-01-26T05:14:28.620Z,-0.60
2019-01-26T05:16:58.627Z,-0.66
2019-01-26T05:19:28.545Z,-0.66
2019-01-26T05:21:58.484Z,-0.57
2019-01-26T05:24:28.466Z,-0.57
2019-01-26T05:26:58.460Z,-0.54
2019-01-26T05:29:28.374Z,-0.58
2019-01-26T05:31:58.332Z,-0.58
2019-01-26T05:34:28.156Z,-0.54
2019-01-26T05:36:58.194Z,-0.48
2019-01-26T05:39:28.161Z,-0.40
2019-01-26T05:41:58.040Z,-0.42
2019-01-26T05:44:27.891Z,-0.33
2019-01-26T05:46:57.799Z,-0.31
2019-01-26T05:49:27.654Z,-0.32
2019-01-26T05:51:57.742Z,-0.40
2019-01-26T05:54:27.759Z,-0.29
2019-01-26T05:56:57.629Z,-0.22
2019-01-26T05:59:27.562Z,-0.23
2019-01-26T06:01:57.537Z,-0.09
2019-01-26T06:04:27.511Z,-0.11
2019-01-26T06:06:57.435Z,-0.01
2019-01-26T06:09:27.285Z,0.01
2019-01-26T06:11:57.224Z,0.15
2019-01-26T06:14:27.130Z,0.14
2019-01-26T06:16:57.128Z,0.15
2019-01-26T06:19:27.117Z,0.12
2019-01-26T06:21:56.970Z,0.24
2019-01-26T06:24:26.960Z,0.22
2019-01-26T06:26:56.890Z,0.25
2019-01-26T06:29:26.827Z,0.34
2019-01-26T06:31:56.706Z,0.47
2019-01-26T06:34:26.556Z,0.36
2019-01-26T06:36:56.440Z,0.31
2019-01-26T06:39:26.474Z,0.37
2019-01-26T06:41:56.354Z,0.44
2019-01-26T06:44:26.371Z,0.36
2019-01-26T06:46:56.283Z,0.45
2019-01-26T06:49:26.207Z,0.50
2019-01-26T06:51:56.177Z,0.71
2019-01-26T06:54:26.241Z,0.62
2019-01-26T06:56:56.168Z,0.58
2019-01-26T06:59:26.207Z,0.64
2019-01-26T07:01:56.131Z,0.66
2019-01-26T07:04:41.137Z,0.70
2019-01-26T07:07:16.843Z,0.76
2019-01-26T07:09:46.893Z,0.81
2019-01-26T07:12:16.906Z,0.77
2019-01-26T07:14:46.794Z,0.81
2019-01-26T07:17:16.806Z,0.89
2019-01-26T07:19:46.798Z,0.86
2019-01-26T07:22:16.751Z,0.90
2019-01-26T07:24:46.654Z,1.01
2019-01-26T07:27:16.656Z,1.09
2019-01-26T07:29:46.604Z,1.07
2019-01-26T07:32:16.607Z,1.10
2019-01-26T07:34:46.495Z,1.07
2019-01-26T07:37:16.401Z,1.16
2019-01-26T07:39:46.277Z,1.13
2019-01-26T07:42:16.215Z,1.15
2019-01-26T07:44:46.162Z,1.24
2019-01-26T07:47:16.211Z,1.15
2019-01-26T07:49:46.191Z,1.22
2019-01-26T07:52:16.179Z,1.27
2019-01-26T07:54:46.158Z,1.34
2019-01-26T07:57:16.068Z,1.31
2019-01-26T07:59:45.907Z,1.31
2019-01-26T08:02:15.833Z,1.29
2019-01-26T08:04:45.682Z,1.23
2019-01-26T08:07:15.705Z,1.33
2019-01-26T08:09:45.689Z,1.44
2019-01-26T08:12:15.714Z,1.41
2019-01-26T08:14:45.744Z,1.41
2019-01-26T08:17:15.781Z,1.40
2019-01-26T08:19:45.816Z,1.47
2019-01-26T08:22:15.761Z,1.51
2019-01-26T08:24:45.776Z,1.62
2019-01-26T08:27:15.756Z,1.50
2019-01-26T08:29:45.840Z,1.63
2019-01-26T08:32:15.649Z,1.57
2019-01-26T08:34:45.513Z,1.67
2019-01-26T08:37:15.471Z,1.71
2019-01-26T08:39:45.575Z,1.73
2019-01-26T08:42:15.587Z,1.77
2019-01-26T08:44:45.442Z,1.71
2019-01-26T08:47:15.345Z,1.87
2019-01-26T08:49:45.399Z,1.85
2019-01-26T08:52:15.320Z,1.80
2019-01-26T08:54:46.347Z,1.91
2019-01-26T08:57:16.422Z,1.76
2019-01-26T08:59:46.297Z,1.74
2019-01-26T09:02:42.287Z,1.68
2019-01-26T09:05:13.432Z,1.67
2019-01-26T09:07:43.319Z,1.76
2019-01-26T09:10:13.334Z,1.69
2019-01-26T09:12:43.345Z,1.80
2019-01-26T09:15:13.546Z,1.93
2019-01-26T09:17:43.597Z,1.84
2019-01-26T09:20:13.997Z,1.88
2019-01-26T09:22:45.129Z,1.85
2019-01-26T09:25:15.144Z,1.90
2019-01-26T09:27:45.452Z,1.95
2019-01-26T09:30:15.883Z,2.12
2019-01-26T09:32:45.910Z,2.24
2019-01-26T09:35:15.925Z,1.96
2019-01-26T09:37:45.947Z,2.13
2019-01-26T09:40:16.176Z,2.23
2019-01-26T09:42:46.282Z,2.00
2019-01-26T09:45:16.430Z,2.13
2019-01-26T09:47:46.600Z,2.06
2019-01-26T09:50:17.237Z,2.11
2019-01-26T09:52:47.210Z,2.07
2019-01-26T09:55:17.281Z,2.26
2019-01-26T09:57:47.454Z,2.04
2019-01-26T10:00:18.652Z,2.09
2019-01-26T10:02:48.679Z,2.02
2019-01-26T10:05:18.860Z,2.04
2019-01-26T10:07:49.320Z,1.97
2019-01-26T10:10:19.668Z,2.09
2019-01-26T10:12:50.793Z,2.08
2019-01-26T10:15:20.826Z,2.09
2019-01-26T10:17:50.762Z,2.10
2019-01-26T10:20:23.084Z,2.77
2019-01-26T10:22:53.092Z,2.50
2019-01-26T10:25:24.358Z,2.31
2019-01-26T10:27:54.394Z,2.28
2019-01-26T10:30:33.310Z,2.50
2019-01-26T10:33:03.392Z,2.53
2019-01-26T10:35:46.328Z,2.50
2019-01-26T10:38:16.376Z,2.51
2019-01-26T10:41:05.408Z,2.55
2019-01-26T10:43:38.561Z,2.62
2019-01-26T10:46:08.521Z,2.96
2019-01-26T10:48:38.505Z,2.94
2019-01-26T10:51:08.314Z,3.07
2019-01-26T10:53:38.334Z,3.09
2019-01-26T10:56:08.395Z,3.11
2019-01-26T10:58:38.359Z,3.24
2019-01-26T11:01:08.396Z,3.22
2019-01-26T11:03:38.388Z,3.40
2019-01-26T11:06:08.409Z,3.32
2019-01-26T11:08:38.401Z,3.25
2019-01-26T11:11:08.365Z,3.32
2019-01-26T11:13:38.355Z,3.19
2019-01-26T11:16:08.401Z,3.38
2019-01-26T11:18:38.298Z,3.37
2019-01-26T11:21:08.355Z,3.54
2019-01-26T11:23:38.330Z,3.74
2019-01-26T11:26:08.344Z,3.93
2019-01-26T11:28:38.334Z,4.13
2019-01-26T11:31:09.341Z,4.20
2019-01-26T11:33:39.187Z,4.33
2019-01-26T11:36:09.224Z,4.32
2019-01-26T11:38:39.170Z,4.37
2019-01-26T11:41:09.200Z,4.37
2019-01-26T11:43:39.260Z,4.52
2019-01-26T11:46:19.124Z,4.57
2019-01-26T11:48:51.277Z,4.77
2019-01-26T11:51:43.218Z,4.65
2019-01-26T11:54:13.205Z,4.72
2019-01-26T11:56:55.635Z,4.88
2019-01-26T11:59:25.650Z,5.06
2019-01-26T12:02:17.388Z,4.88
2019-01-26T12:05:24.579Z,4.77
2019-01-26T12:07:54.602Z,4.68
2019-01-26T12:10:24.588Z,4.73
2019-01-26T12:12:54.536Z,4.85
2019-01-26T12:15:24.436Z,4.72
2019-01-26T12:17:54.432Z,4.76
2019-01-26T12:20:24.361Z,4.88
2019-01-26T12:22:54.266Z,5.03
2019-01-26T12:25:24.175Z,5.11
2019-01-26T12:27:54.186Z,4.88
2019-01-26T12:30:24.252Z,4.99
2019-01-26T12:32:54.253Z,5.26
2019-01-26T12:35:24.229Z,5.32
2019-01-26T12:37:54.411Z,5.09
2019-01-26T12:40:24.430Z,5.35
2019-01-26T12:42:54.466Z,5.25
2019-01-26T12:45:24.506Z,5.17
2019-01-26T12:47:54.421Z,5.07
2019-01-26T12:50:24.458Z,5.00
2019-01-26T12:52:54.452Z,5.25
2019-01-26T12:55:24.498Z,5.30
2019-01-26T12:57:54.428Z,5.30
2019-01-26T13:00:24.565Z,5.21
2019-01-26T13:02:54.826Z,5.44
2019-01-26T13:05:25.136Z,5.06
2019-01-26T13:07:55.214Z,5.22
2019-01-26T13:10:31.842Z,5.44
2019-01-26T13:13:01.831Z,5.46
2019-01-26T13:15:32.299Z,5.58
2019-01-26T13:18:02.616Z,5.35
2019-01-26T13:20:32.802Z,5.11
2019-01-26T13:23:02.821Z,5.00
2019-01-26T13:25:32.816Z,5.09
2019-01-26T13:28:02.833Z,4.98
2019-01-26T13:30:32.781Z,4.84
2019-01-26T13:33:02.834Z,4.86
2019-01-26T13:35:32.830Z,5.18
2019-01-26T13:38:02.839Z,5.04
2019-01-26T13:40:33.097Z,5.16
2019-01-26T13:43:03.110Z,5.15
2019-01-26T13:45:32.943Z,5.19
2019-01-26T13:48:03.011Z,5.09
2019-01-26T13:50:33.013Z,5.34
2019-01-26T13:53:05.885Z,5.21
2019-01-26T13:55:35.850Z,5.06
2019-01-26T13:58:06.254Z,5.07
2019-01-26T14:00:36.419Z,5.13
2019-01-26T14:03:06.893Z,5.31
2019-01-26T14:05:36.822Z,5.26
2019-01-26T14:08:06.986Z,5.19
2019-01-26T14:10:36.890Z,5.18
2019-01-26T14:13:07.248Z,5.30
2019-01-26T14:15:37.274Z,5.21
2019-01-26T14:18:07.267Z,5.14
2019-01-26T14:20:37.206Z,5.07
2019-01-26T14:23:07.109Z,5.41
2019-01-26T14:25:37.102Z,5.17
2019-01-26T14:28:07.183Z,5.26
2019-01-26T14:30:40.255Z,5.22
2019-01-26T14:33:10.164Z,5.19
2019-01-26T14:35:40.180Z,5.17
2019-01-26T14:38:10.199Z,5.11
2019-01-26T14:40:40.083Z,5.14
2019-01-26T14:43:10.090Z,5.14
2019-01-26T14:45:40.085Z,4.96
2019-01-26T14:48:10.079Z,4.95
2019-01-26T14:50:40.044Z,5.02
2019-01-26T14:53:10.464Z,5.05
2019-01-26T14:55:40.441Z,5.06
2019-01-26T14:58:10.442Z,5.08
2019-01-26T15:00:40.434Z,5.14
2019-01-26T15:03:10.462Z,4.98
2019-01-26T15:05:40.499Z,4.87
2019-01-26T15:08:10.528Z,4.82
2019-01-26T15:10:40.547Z,4.86
2019-01-26T15:13:10.636Z,4.84
2019-01-26T15:15:40.649Z,4.71
2019-01-26T15:18:11.643Z,4.69
2019-01-26T15:20:41.884Z,4.71
2019-01-26T15:23:12.406Z,4.76
2019-01-26T15:25:42.606Z,4.68
2019-01-26T15:28:12.625Z,4.75
2019-01-26T15:30:43.629Z,4.62
2019-01-26T15:33:15.134Z,4.56
2019-01-26T15:35:45.242Z,4.59
2019-01-26T15:38:15.230Z,4.57
2019-01-26T15:40:45.119Z,4.50
2019-01-26T15:43:15.147Z,4.54
2019-01-26T15:45:47.340Z,4.54
2019-01-26T15:48:17.344Z,4.50
2019-01-26T15:50:47.410Z,4.44
2019-01-26T15:53:17.454Z,4.50
2019-01-26T15:55:47.526Z,4.41
2019-01-26T15:58:17.917Z,4.29
2019-01-26T16:00:47.926Z,4.37
2019-01-26T16:03:18.089Z,4.37
2019-01-26T16:05:48.002Z,4.37
2019-01-26T16:08:18.100Z,4.35
2019-01-26T16:10:48.038Z,4.49
2019-01-26T16:13:18.111Z,4.43
2019-01-26T16:15:48.041Z,4.38
2019-01-26T16:18:18.047Z,4.33
2019-01-26T16:20:48.103Z,4.30
2019-01-26T16:23:18.114Z,4.24
2019-01-26T16:25:48.147Z,4.30
2019-01-26T16:28:18.150Z,4.30
2019-01-26T16:30:48.449Z,4.32
2019-01-26T16:33:18.432Z,4.28
2019-01-26T16:35:48.418Z,4.28
2019-01-26T16:38:18.383Z,4.21
2019-01-26T16:40:48.347Z,4.23
2019-01-26T16:43:18.251Z,4.23
2019-01-26T16:45:48.314Z,4.26
2019-01-26T16:48:18.212Z,4.20
2019-01-26T16:50:48.569Z,4.26
2019-01-26T16:53:18.542Z,4.21
2019-01-26T16:55:50.356Z,4.22
2019-01-26T16:58:20.248Z,4.20
2019-01-26T17:00:52.710Z,4.28
2019-01-26T17:03:22.682Z,4.24
2019-01-26T17:05:52.829Z,4.26
2019-01-26T17:08:22.809Z,4.35
2019-01-26T17:10:52.829Z,4.27
2019-01-26T17:13:22.855Z,4.17
2019-01-26T17:15:52.872Z,4.29
2019-01-26T17:18:22.807Z,4.26
2019-01-26T17:20:52.767Z,4.33
2019-01-26T17:23:22.810Z,4.26
2019-01-26T17:25:52.731Z,4.35
2019-01-26T17:28:22.773Z,4.24
2019-01-26T17:30:52.894Z,4.25
2019-01-26T17:33:22.928Z,4.28
2019-01-26T17:35:52.841Z,4.30
2019-01-26T17:38:22.860Z,4.28
2019-01-26T17:40:54.476Z,4.30
2019-01-26T17:43:25.514Z,4.21
2019-01-26T17:45:55.543Z,4.27
2019-01-26T17:48:25.483Z,4.35
2019-01-26T17:50:55.668Z,4.42
2019-01-26T17:53:25.660Z,4.41
2019-01-26T17:55:55.631Z,4.41
2019-01-26T17:58:25.549Z,4.31
2019-01-26T18:00:57.430Z,4.28
2019-01-26T18:03:27.437Z,4.30
2019-01-26T18:05:57.492Z,4.24
2019-01-26T18:08:27.494Z,4.29
2019-01-26T18:10:57.560Z,4.26
2019-01-26T18:13:27.789Z,4.26
2019-01-26T18:15:58.784Z,4.26
2019-01-26T18:18:28.785Z,4.20
2019-01-26T18:20:58.761Z,4.23
2019-01-26T18:23:32.959Z,4.25
2019-01-26T18:26:04.188Z,4.31
2019-01-26T18:28:35.105Z,4.31
2019-01-26T18:31:05.210Z,4.29
2019-01-26T18:33:35.501Z,4.26
2019-01-26T18:36:06.264Z,4.33
2019-01-26T18:38:36.482Z,4.37
2019-01-26T18:41:06.764Z,4.42
2019-01-26T18:43:36.715Z,4.41
2019-01-26T18:46:06.800Z,4.42
2019-01-26T18:48:37.235Z,4.35
2019-01-26T18:51:07.240Z,4.36
2019-01-26T18:53:37.221Z,4.44
2019-01-26T18:56:07.203Z,4.43
2019-01-26T18:58:37.213Z,4.32
2019-01-26T19:01:07.071Z,4.34
2019-01-26T19:04:10.247Z,4.36
2019-01-26T19:06:40.179Z,4.33
2019-01-26T19:09:11.906Z,4.43
2019-01-26T19:11:41.907Z,4.36
2019-01-26T19:14:12.058Z,4.41
2019-01-26T19:16:42.128Z,4.29
2019-01-26T19:19:12.092Z,4.24
2019-01-26T19:21:42.058Z,4.29
2019-01-26T19:24:12.279Z,4.12
2019-01-26T19:26:42.207Z,4.05
2019-01-26T19:29:12.103Z,4.04
2019-01-26T19:31:42.129Z,4.25
2019-01-26T19:34:11.974Z,3.82
2019-01-26T19:36:42.030Z,3.73
2019-01-26T19:39:12.022Z,3.69
2019-01-26T19:41:42.061Z,3.70
2019-01-26T19:44:12.056Z,3.69
2019-01-26T19:46:42.096Z,3.64
2019-01-26T19:49:12.004Z,3.63
2019-01-26T19:51:42.049Z,3.60
2019-01-26T19:54:12.047Z,3.60
2019-01-26T19:56:43.184Z,3.57
2019-01-26T19:59:13.176Z,3.48
2019-01-26T20:01:44.012Z,3.40
2019-01-26T20:04:13.937Z,3.33
2019-01-26T20:06:44.038Z,3.34
2019-01-26T20:09:14.767Z,3.30
2019-01-26T20:11:44.787Z,3.29
2019-01-26T20:14:14.733Z,3.31
2019-01-26T20:16:44.767Z,3.33
2019-01-26T20:19:15.765Z,3.31
2019-01-26T20:21:45.753Z,3.11
2019-01-26T20:24:15.805Z,3.27
2019-01-26T20:26:45.625Z,3.29
2019-01-26T20:29:15.665Z,3.29
2019-01-26T20:31:45.675Z,3.30
2019-01-26T20:34:15.762Z,3.29
2019-01-26T20:36:45.724Z,3.28
2019-01-26T20:39:15.737Z,3.24
2019-01-26T20:41:45.735Z,3.20
2019-01-26T20:44:15.916Z,3.16
2019-01-26T20:46:47.545Z,3.08
2019-01-26T20:49:17.558Z,3.03
2019-01-26T20:51:47.453Z,2.91
2019-01-26T20:54:17.445Z,2.84
2019-01-26T20:56:47.358Z,2.72
2019-01-26T20:59:17.360Z,2.67
2019-01-26T21:01:47.368Z,2.67
2019-01-26T21:04:17.236Z,2.67
2019-01-26T21:06:47.095Z,3.23
2019-01-26T21:09:17.055Z,2.68
2019-01-26T21:11:47.132Z,2.58
2019-01-26T21:14:17.044Z,2.52
2019-01-26T21:16:46.949Z,2.45
2019-01-26T21:19:16.845Z,2.45
2019-01-26T21:21:46.869Z,2.37
2019-01-26T21:24:16.852Z,2.35
2019-01-26T21:26:46.904Z,2.34
2019-01-26T21:29:16.881Z,2.31
2019-01-26T21:31:46.997Z,2.34
2019-01-26T21:34:16.976Z,2.31
2019-01-26T21:36:48.216Z,2.28
2019-01-26T21:39:18.106Z,2.24
2019-01-26T21:41:48.143Z,2.24
2019-01-26T21:44:18.173Z,2.28
2019-01-26T21:46:48.137Z,2.29
2019-01-26T21:49:18.249Z,2.29
2019-01-26T21:51:48.296Z,2.27
2019-01-26T21:54:28.362Z,2.23
2019-01-26T21:56:58.407Z,2.18
2019-01-26T21:59:28.331Z,2.11
2019-01-26T22:01:58.328Z,2.05
2019-01-26T22:04:28.291Z,2.01
2019-01-26T22:06:58.310Z,1.99
2019-01-26T22:09:28.424Z,1.90
2019-01-26T22:11:58.495Z,1.84
2019-01-26T22:14:28.757Z,1.75
2019-01-26T22:16:58.669Z,1.68
2019-01-26T22:19:28.892Z,1.61
2019-01-26T22:21:58.889Z,1.55
2019-01-26T22:24:28.824Z,1.52
2019-01-26T22:26:58.714Z,1.48
2019-01-26T22:29:31.331Z,1.45
2019-01-26T22:32:00.549Z,1.44
2019-01-26T22:34:30.609Z,1.41
2019-01-26T22:37:00.579Z,1.39
2019-01-26T22:39:30.611Z,1.37
2019-01-26T22:42:00.556Z,1.42
2019-01-26T22:44:30.418Z,1.48
2019-01-26T22:47:00.349Z,1.47
2019-01-26T22:49:30.205Z,1.49
2019-01-26T22:52:00.132Z,1.48
2019-01-26T22:54:30.410Z,1.46
2019-01-26T22:57:00.359Z,1.45
2019-01-26T22:59:30.240Z,1.45
2019-01-26T23:02:00.561Z,1.46
2019-01-26T23:04:38.899Z,1.45
2019-01-26T23:07:23.747Z,1.43
2019-01-26T23:10:46.880Z,1.42
2019-01-26T23:13:24.544Z,1.41
2019-01-26T23:16:34.434Z,1.38
2019-01-26T23:19:50.303Z,1.30
2019-01-26T23:23:01.361Z,1.23
2019-01-26T23:26:21.020Z,1.20
2019-01-26T23:29:30.953Z,1.15
2019-01-26T23:32:01.730Z,1.11
2019-01-26T23:34:31.753Z,1.07
2019-01-26T23:37:01.654Z,1.03
2019-01-26T23:39:31.599Z,0.99
2019-01-26T23:42:01.511Z,0.96
2019-01-26T23:44:31.645Z,0.94
2019-01-26T23:47:01.860Z,0.95
2019-01-26T23:49:31.895Z,0.87
2019-01-26T23:52:01.810Z,0.81
2019-01-26T23:54:31.683Z,0.77
2019-01-26T23:57:01.768Z,0.73
2019-01-26T23:59:31.839Z,0.77
